DW6016 Weather Reports


Display with metric or nautical units.
time (UTC)temp
F
wind
direction
speed
MPH
gust
MPH
rain 1hr
in
rain 24hr
in
rain mn
in
humidity
%
barometer
mb
20200711232246 78 39 1.0 1.0 0.00 0.00 0.00 56 1018.8
20200711231743 81 70 2.0 2.0 0.00 0.00 0.00 49 1019.1
20200711231239 82 79 0.0 1.0 0.00 0.00 0.00 43 1019.1
20200711230731 83 19 2.0 3.0 0.00 0.00 0.00 42 1018.8
20200711230232 82 103 0.0 0.0 0.00 0.00 0.00 48 1018.8
20200711225727 81 181 2.0 2.0 0.00 0.00 0.00 41 1018.8
20200711225224 81 78 1.0 1.0 0.00 0.00 0.00 45 1018.8
20200711224722 82 136 0.0 1.0 0.00 0.00 0.00 48 1018.8
20200711224217 82 126 1.0 1.0 0.00 0.00 0.00 46 1019.1
20200711223716 81 134 0.0 0.0 0.00 0.00 0.00 49 1018.8
20200711223213 80 97 0.0 1.0 0.00 0.00 0.00 45 1018.8
20200711222712 79 165 3.0 3.0 0.00 0.00 0.00 45 1019.1
20200711222207 80 216 5.0 7.0 0.00 0.00 0.00 49 1019.1
20200711221702 80 71 1.0 2.0 0.00 0.00 0.00 50 1018.8
20200711221200 78 131 0.0 0.0 0.00 0.00 0.00 49 1019.1
20200711220656 78 118 2.0 2.0 0.00 0.00 0.00 54 1018.8
20200711220156 79 97 0.0 1.0 0.00 0.00 0.00 51 1018.8
20200711215650 81 97 0.0 0.0 0.00 0.00 0.00 52 1018.8
20200711215148 80 100 1.0 1.0 0.00 0.00 0.00 50 1018.8
20200711214648 80 100 1.0 2.0 0.00 0.00 0.00 48 1018.8
20200711214142 78 153 0.0 1.0 0.00 0.00 0.00 56 1018.8
20200711213638 78 97 0.0 0.0 0.00 0.00 0.00 55 1018.8
20200711213131 78 291 5.0 7.0 0.00 0.00 0.00 51 1019.1
20200711212628 79 127 1.0 1.0 0.00 0.00 0.00 53 1019.1
20200711212127 79 112 0.0 1.0 0.00 0.00 0.00 54 1019.1
20200711211626 79 74 2.0 3.0 0.00 0.00 0.00 52 1019.1
20200711211123 77 137 0.0 0.0 0.00 0.00 0.00 53 1019.1
20200711210626 77 75 1.0 2.0 0.00 0.00 0.00 54 1019.4
20200711210117 77 82 1.0 2.0 0.00 0.00 0.00 55 1019.1
20200711205613 77 125 1.0 1.0 0.00 0.00 0.00 57 1019.4
20200711205111 78 119 2.0 2.0 0.00 0.00 0.00 53 1019.1
20200711204607 78 311 3.0 5.0 0.00 0.00 0.00 54 1019.1
20200711204105 75 150 1.0 1.0 0.00 0.00 0.00 58 1019.1
20200711203604 75 112 0.0 1.0 0.00 0.00 0.00 60 1019.1
20200711203101 76 245 4.0 6.0 0.00 0.00 0.00 57 1019.4
20200711202555 76 133 0.0 0.0 0.00 0.00 0.00 58 1019.4
20200711202050 76 152 1.0 2.0 0.00 0.00 0.00 58 1019.4
20200711201551 75 71 1.0 1.0 0.00 0.00 0.00 58 1019.4
20200711201045 76 83 1.0 1.0 0.00 0.00 0.00 59 1019.1
20200711200541 77 110 1.0 1.0 0.00 0.00 0.00 56 1019.4
20200711200041 77 115 2.0 2.0 0.00 0.00 0.00 60 1019.4
20200711195536 77 128 1.0 2.0 0.00 0.00 0.00 59 1019.4
20200711195039 75 104 0.0 0.0 0.00 0.00 0.00 61 1019.8
20200711194533 74 107 0.0 0.0 0.00 0.00 0.00 63 1019.4
20200711194031 76 75 0.0 1.0 0.00 0.00 0.00 60 1019.4
20200711193529 76 131 2.0 2.0 0.00 0.00 0.00 57 1019.8
20200711193035 75 79 0.0 0.0 0.00 0.00 0.00 61 1019.8
20200711192522 76 137 1.0 1.0 0.00 0.00 0.00 58 1019.8
20200711192022 75 129 1.0 1.0 0.00 0.00 0.00 60 1019.4
20200711191516 75 127 1.0 1.0 0.00 0.00 0.00 60 1019.8
20200711191018 75 129 1.0 1.0 0.00 0.00 0.00 59 1019.4
20200711190510 73 95 1.0 1.0 0.00 0.00 0.00 61 1019.8
20200711190007 74 296 2.0 3.0 0.00 0.00 0.00 62 1019.4
20200711185504 74 277 2.0 3.0 0.00 0.00 0.00 61 1019.4
20200711185004 75 135 1.0 2.0 0.00 0.00 0.00 63 1019.4
20200711184506 75 159 1.0 1.0 0.00 0.00 0.00 59 1019.8
20200711183959 75 122 2.0 2.0 0.00 0.00 0.00 60 1019.4
20200711183457 74 112 0.0 0.0 0.00 0.00 0.00 59 1019.4
20200711182956 74 126 1.0 1.0 0.00 0.00 0.00 60 1019.8
20200711182451 72 105 0.0 0.0 0.00 0.00 0.00 62 1019.8
20200711181951 71 130 1.0 1.0 0.00 0.00 0.00 66 1019.8
20200711181446 71 126 0.0 0.0 0.00 0.00 0.00 67 1019.4
20200711180945 73 121 1.0 2.0 0.00 0.00 0.00 64 1019.8
20200711180444 74 70 1.0 2.0 0.00 0.00 0.00 61 1019.8
20200711175940 74 104 0.0 0.0 0.00 0.00 0.00 61 1019.8
20200711175438 73 84 0.0 0.0 0.00 0.00 0.00 64 1019.8
20200711174938 72 78 1.0 2.0 0.00 0.00 0.00 63 1019.4
20200711174433 72 98 1.0 2.0 0.00 0.00 0.00 62 1019.8
20200711173928 72 90 1.0 1.0 0.00 0.00 0.00 62 1019.4
20200711173426 71 92 0.0 0.0 0.00 0.00 0.00 67 1019.8
20200711172923 72 30 1.0 2.0 0.00 0.00 0.00 60 1019.8
20200711172417 71 87 0.0 0.0 0.00 0.00 0.00 66 1019.4
20200711171913 71 138 1.0 1.0 0.00 0.00 0.00 65 1019.4
20200711171410 70 106 0.0 0.0 0.00 0.00 0.00 66 1019.8
20200711170908 69 98 1.0 1.0 0.00 0.00 0.00 66 1019.4
20200711170404 68 101 2.0 2.0 0.00 0.00 0.00 65 1019.4
20200711165903 69 101 1.0 2.0 0.00 0.00 0.00 65 1019.8
20200711165400 69 123 0.0 0.0 0.00 0.00 0.00 65 1019.4
20200711164855 68 119 0.0 0.0 0.00 0.00 0.00 71 1019.4
20200711164350 69 84 1.0 1.0 0.00 0.00 0.00 67 1019.8
20200711163845 69 71 0.0 1.0 0.00 0.00 0.00 66 1019.8
20200711163343 69 118 1.0 1.0 0.00 0.00 0.00 68 1019.8
20200711162919 68 126 0.0 0.0 0.00 0.00 0.00 67 1019.4
20200711162341 68 142 1.0 1.0 0.00 0.00 0.00 67 1019.8
20200711161838 66 107 0.0 0.0 0.00 0.00 0.00 71 1019.8
20200711161339 66 146 1.0 2.0 0.00 0.00 0.00 72 1019.8
20200711160837 67 129 0.0 1.0 0.00 0.00 0.00 72 1019.4
20200711160327 66 100 0.0 0.0 0.00 0.00 0.00 73 1019.8
20200711155826 66 120 1.0 2.0 0.00 0.00 0.00 73 1019.8
20200711155324 65 86 0.0 1.0 0.00 0.00 0.00 73 1019.8
20200711154824 66 157 2.0 2.0 0.00 0.00 0.00 72 1019.8
20200711154323 66 99 1.0 1.0 0.00 0.00 0.00 72 1019.8
20200711153820 65 95 0.0 0.0 0.00 0.00 0.00 73 1019.8
20200711153319 65 122 0.0 0.0 0.00 0.00 0.00 74 1019.8
20200711152815 65 122 0.0 1.0 0.00 0.00 0.00 73 1019.8
20200711152312 64 97 0.0 1.0 0.00 0.00 0.00 76 1019.8
20200711151811 63 90 0.0 0.0 0.00 0.00 0.00 76 1019.8
20200711151306 63 257 2.0 3.0 0.00 0.00 0.00 77 1019.4
20200711150803 62 102 0.0 0.0 0.00 0.00 0.00 78 1019.8
20200711150302 61 101 0.0 0.0 0.00 0.00 0.00 80 1019.8
20200711145756 60 109 0.0 0.0 0.00 0.00 0.00 82 1019.4
20200711145256 60 91 0.0 1.0 0.00 0.00 0.00 84 1019.4
20200711144749 60 99 0.0 0.0 0.00 0.00 0.00 83 1019.4
20200711144248 59 88 0.0 0.0 0.00 0.00 0.00 84 1019.4
20200711143746 59 92 0.0 0.0 0.00 0.00 0.00 85 1019.4
20200711143243 59 92 0.0 1.0 0.00 0.00 0.00 86 1019.8
20200711142738 58 124 0.0 0.0 0.00 0.00 0.00 87 1019.8
20200711142235 57 123 0.0 0.0 0.00 0.00 0.00 89 1019.4
20200711141735 57 124 0.0 1.0 0.00 0.00 0.00 90 1019.4
20200711141230 56 123 0.0 0.0 0.00 0.00 0.00 92 1019.4
20200711140726 55 123 0.0 0.0 0.00 0.00 0.00 95 1019.4
20200711140224 55 124 0.0 0.0 0.00 0.00 0.00 96 1019.1
20200711135724 54 124 0.0 0.0 0.00 0.00 0.00 96 1019.1
20200711135220 54 124 0.0 0.0 0.00 0.00 0.00 96 1019.1
20200711134710 53 124 0.0 0.0 0.00 0.00 0.00 96 1019.1
20200711134209 53 124 0.0 0.0 0.00 0.00 0.00 96 1019.4
20200711133701 52 124 0.0 0.0 0.00 0.00 0.00 96 1019.1
20200711133201 52 124 0.0 0.0 0.00 0.00 0.00 96 1019.1
20200711132657 52 124 0.0 0.0 0.00 0.00 0.00 96 1019.1
20200711132155 52 124 0.0 0.0 0.00 0.00 0.00 96 1019.1
20200711131649 52 124 0.0 0.0 0.00 0.00 0.00 96 1019.1
20200711131149 52 124 0.0 0.0 0.00 0.00 0.00 96 1019.1
20200711130645 52 124 0.0 0.0 0.00 0.00 0.00 96 1018.8
20200711130145 52 124 0.0 0.0 0.00 0.00 0.00 96 1018.8
20200711125642 52 124 0.0 0.0 0.00 0.00 0.00 96 1018.8
20200711125138 52 124 0.0 0.0 0.00 0.00 0.00 96 1018.8
20200711124636 51 124 0.0 0.0 0.00 0.00 0.00 95 1018.8
20200711124133 51 124 0.0 0.0 0.00 0.00 0.00 95 1018.4
20200711123632 51 124 0.0 0.0 0.00 0.00 0.00 95 1018.8
20200711123131 52 125 0.0 0.0 0.00 0.00 0.00 95 1018.4
20200711122629 52 125 0.0 0.0 0.00 0.00 0.00 94 1018.4
20200711122124 52 125 0.0 0.0 0.00 0.00 0.00 95 1018.8
20200711121622 52 125 0.0 0.0 0.00 0.00 0.00 94 1018.8
20200711121121 52 125 0.0 0.0 0.00 0.00 0.00 95 1018.8
20200711120617 53 125 0.0 0.0 0.00 0.00 0.00 94 1018.4
20200711120112 53 125 0.0 0.0 0.00 0.00 0.00 94 1018.8
20200711115610 53 125 0.0 0.0 0.00 0.00 0.00 95 1018.4
20200711115107 53 125 0.0 0.0 0.00 0.00 0.00 94 1018.8
20200711114605 53 125 0.0 0.0 0.00 0.00 0.00 94 1018.8
20200711114101 53 125 0.0 0.0 0.00 0.00 0.00 94 1018.8
20200711113559 54 125 0.0 0.0 0.00 0.00 0.00 93 1018.8
20200711113057 54 125 0.0 0.0 0.00 0.00 0.00 93 1018.4
20200711112554 54 125 0.0 0.0 0.00 0.00 0.00 93 1018.8
20200711112050 54 125 0.0 0.0 0.00 0.00 0.00 93 1018.4
20200711111546 54 125 0.0 0.0 0.00 0.00 0.00 93 1018.4
20200711111041 54 125 0.0 0.0 0.00 0.00 0.00 93 1018.4
20200711110537 55 125 0.0 0.0 0.00 0.00 0.00 92 1018.1
20200711110037 55 125 0.0 0.0 0.00 0.00 0.00 92 1018.1
20200711105536 55 125 0.0 0.0 0.00 0.00 0.00 93 1018.4
20200711105031 55 125 0.0 0.0 0.00 0.00 0.00 91 1018.4
20200711104532 55 125 0.0 0.0 0.00 0.00 0.00 91 1018.4
20200711104029 56 125 0.0 0.0 0.00 0.00 0.00 91 1018.4
20200711103528 56 125 0.0 0.0 0.00 0.00 0.00 91 1018.4
20200711103023 55 125 0.0 0.0 0.00 0.00 0.00 91 1018.8
20200711102524 55 125 0.0 0.0 0.00 0.00 0.00 91 1018.8
20200711102022 56 125 0.0 0.0 0.00 0.00 0.00 91 1018.8
20200711101516 56 125 0.0 0.0 0.00 0.00 0.00 90 1018.8
20200711101012 56 125 0.0 0.0 0.00 0.00 0.00 91 1018.8
20200711100510 55 125 0.0 0.0 0.00 0.00 0.00 91 1018.8
20200711100015 55 125 0.0 0.0 0.00 0.00 0.00 91 1018.8
20200711095506 55 125 0.0 0.0 0.00 0.00 0.00 91 1018.8
20200711095002 55 125 0.0 0.0 0.00 0.00 0.00 91 1018.8
20200711094501 56 125 0.0 0.0 0.00 0.00 0.00 90 1018.8
20200711093959 56 125 0.0 0.0 0.00 0.00 0.00 90 1018.8
20200711093458 56 125 0.0 0.0 0.00 0.00 0.00 90 1018.8
20200711092954 56 125 0.0 0.0 0.00 0.00 0.00 89 1018.8
20200711092449 57 125 0.0 0.0 0.00 0.00 0.00 89 1018.8
20200711091947 57 125 0.0 0.0 0.00 0.00 0.00 88 1018.8
20200711091444 57 125 0.0 0.0 0.00 0.00 0.00 88 1018.8
20200711090942 58 125 0.0 0.0 0.00 0.00 0.00 87 1018.8
20200711090438 58 125 0.0 0.0 0.00 0.00 0.00 87 1018.8
20200711085937 57 125 0.0 0.0 0.00 0.00 0.00 88 1018.8
20200711085433 57 125 0.0 0.0 0.00 0.00 0.00 88 1018.8
20200711084932 57 125 0.0 0.0 0.00 0.00 0.00 88 1018.8
20200711084427 57 125 0.0 0.0 0.00 0.00 0.00 88 1018.8
20200711083925 57 125 0.0 0.0 0.00 0.00 0.00 87 1018.8
20200711083422 58 125 0.0 0.0 0.00 0.00 0.00 87 1018.8
20200711082916 58 125 0.0 0.0 0.00 0.00 0.00 87 1018.8
20200711082414 58 125 0.0 0.0 0.00 0.00 0.00 87 1018.8
20200711081909 58 125 0.0 0.0 0.00 0.00 0.00 87 1018.8
20200711081406 59 125 0.0 0.0 0.00 0.00 0.00 86 1019.1
20200711080902 59 125 0.0 0.0 0.00 0.00 0.00 86 1018.8
20200711080359 59 125 0.0 0.0 0.00 0.00 0.00 86 1019.1
20200711075857 60 125 0.0 0.0 0.00 0.00 0.00 85 1018.8
20200711075354 60 125 0.0 0.0 0.00 0.00 0.00 85 1019.1
20200711074854 60 125 0.0 0.0 0.00 0.00 0.00 84 1019.1
20200711074347 60 125 0.0 0.0 0.00 0.00 0.00 84 1019.1
20200711073842 61 125 0.0 0.0 0.00 0.00 0.00 83 1019.1
20200711073337 61 125 0.0 0.0 0.00 0.00 0.00 83 1019.1
20200711072833 60 125 0.0 0.0 0.00 0.00 0.00 84 1019.1
20200711072329 60 125 0.0 0.0 0.00 0.00 0.00 84 1019.1
20200711071826 60 125 0.0 0.0 0.00 0.00 0.00 84 1019.1
20200711071321 61 125 0.0 0.0 0.00 0.00 0.00 83 1019.1
20200711070820 61 125 0.0 0.0 0.00 0.00 0.00 82 1019.1
20200711070314 61 125 0.0 0.0 0.00 0.00 0.00 82 1019.1
20200711065814 61 125 0.0 0.0 0.00 0.00 0.00 82 1019.1
20200711065314 61 125 0.0 0.0 0.00 0.00 0.00 82 1019.1
20200711064812 62 125 0.0 0.0 0.00 0.00 0.00 81 1019.1
20200711064311 62 125 0.0 0.0 0.00 0.00 0.00 80 1019.1
20200711063806 63 125 0.0 0.0 0.00 0.00 0.00 79 1019.1
20200711063305 63 125 0.0 0.0 0.00 0.00 0.00 79 1019.1
20200711062803 63 125 0.0 0.0 0.00 0.00 0.00 79 1019.1
20200711062301 63 125 0.0 0.0 0.00 0.00 0.00 78 1019.1
20200711061756 63 125 0.0 0.0 0.00 0.00 0.00 79 1019.1
20200711061256 63 125 0.0 0.0 0.00 0.00 0.00 78 1019.1
20200711060750 64 125 0.0 0.0 0.00 0.00 0.00 77 1019.1
20200711060248 64 125 0.0 0.0 0.00 0.00 0.00 77 1019.1
20200711055744 64 125 0.0 0.0 0.00 0.00 0.00 76 1019.1
20200711055240 65 125 0.0 0.0 0.00 0.00 0.00 74 1019.4
20200711054735 66 125 0.0 0.0 0.00 0.00 0.00 73 1019.1
20200711054231 66 125 0.0 0.0 0.00 0.00 0.00 71 1019.1
20200711053733 67 125 0.0 0.0 0.00 0.00 0.00 69 1019.1
20200711053231 67 125 0.0 0.0 0.00 0.00 0.00 69 1019.1
20200711052726 67 125 0.0 0.0 0.00 0.00 0.00 69 1019.1
20200711052223 68 126 0.0 1.0 0.00 0.00 0.00 68 1019.1
20200711051718 68 123 0.0 0.0 0.00 0.00 0.00 67 1019.1
20200711051218 68 94 0.0 0.0 0.00 0.00 0.00 67 1019.1
20200711050712 68 87 1.0 2.0 0.00 0.00 0.00 66 1019.1
20200711050212 69 105 0.0 0.0 0.00 0.00 0.00 66 1019.4
20200711045709 69 92 0.0 1.0 0.00 0.00 0.00 66 1019.1
20200711045204 69 114 0.0 1.0 0.00 0.00 0.00 66 1019.1
20200711044659 69 93 0.0 0.0 0.00 0.00 0.00 66 1019.1
20200711044155 69 96 0.0 1.0 0.00 0.00 0.00 65 1019.1
20200711043654 69 117 0.0 1.0 0.00 0.00 0.00 66 1019.1
20200711043152 70 106 1.0 1.0 0.00 0.00 0.00 65 1018.8
20200711042648 70 112 0.0 0.0 0.00 0.00 0.00 65 1019.1
20200711042144 70 104 0.0 0.0 0.00 0.00 0.00 65 1018.8
20200711041641 71 100 0.0 0.0 0.00 0.00 0.00 64 1018.8
20200711041141 71 120 0.0 0.0 0.00 0.00 0.00 64 1018.8
20200711040636 71 132 1.0 1.0 0.00 0.00 0.00 62 1019.1
20200711040132 71 110 0.0 0.0 0.00 0.00 0.00 62 1018.8
20200711035627 72 144 1.0 1.0 0.00 0.00 0.00 61 1018.8
20200711035125 72 104 0.0 0.0 0.00 0.00 0.00 61 1018.8
20200711034624 72 116 0.0 0.0 0.00 0.00 0.00 60 1018.8
20200711034121 73 133 1.0 2.0 0.00 0.00 0.00 61 1018.4
20200711033616 73 121 1.0 1.0 0.00 0.00 0.00 60 1018.8
20200711033115 73 99 0.0 1.0 0.00 0.00 0.00 59 1018.8
20200711032613 73 100 1.0 2.0 0.00 0.00 0.00 59 1018.8
20200711032108 74 107 0.0 0.0 0.00 0.00 0.00 59 1018.8
20200711031607 74 158 1.0 2.0 0.00 0.00 0.00 56 1018.4
20200711031107 74 117 0.0 1.0 0.00 0.00 0.00 56 1018.4
20200711030558 75 93 0.0 1.0 0.00 0.00 0.00 55 1018.4
20200711030059 75 115 1.0 1.0 0.00 0.00 0.00 53 1018.4
20200711025553 75 127 0.0 1.0 0.00 0.00 0.00 54 1018.8
20200711025049 75 106 0.0 0.0 0.00 0.00 0.00 54 1018.8
20200711024548 76 88 0.0 1.0 0.00 0.00 0.00 52 1018.8
20200711024045 76 98 0.0 0.0 0.00 0.00 0.00 52 1018.8
20200711023539 76 97 0.0 0.0 0.00 0.00 0.00 53 1018.8
20200711023039 76 121 1.0 1.0 0.00 0.00 0.00 52 1018.8
20200711022536 76 101 1.0 1.0 0.00 0.00 0.00 51 1018.4
20200711022034 76 188 2.0 2.0 0.00 0.00 0.00 51 1018.4
20200711021532 77 96 0.0 1.0 0.00 0.00 0.00 51 1018.8
20200711021032 77 99 1.0 1.0 0.00 0.00 0.00 53 1018.4
20200711020528 77 123 1.0 2.0 0.00 0.00 0.00 53 1018.8
20200711020024 78 125 0.0 0.0 0.00 0.00 0.00 50 1018.4
20200711015521 80 132 0.0 1.0 0.00 0.00 0.00 50 1018.8
20200711015019 80 104 0.0 0.0 0.00 0.00 0.00 47 1018.8
20200711014516 79 93 0.0 1.0 0.00 0.00 0.00 50 1018.8
20200711014016 80 138 1.0 2.0 0.00 0.00 0.00 48 1018.8
20200711013509 80 165 1.0 1.0 0.00 0.00 0.00 49 1018.8
20200711013014 80 74 1.0 1.0 0.00 0.00 0.00 48 1018.8
20200711012507 80 95 0.0 0.0 0.00 0.00 0.00 48 1018.8
20200711012002 81 144 1.0 2.0 0.00 0.00 0.00 48 1018.8
20200711011459 81 119 1.0 1.0 0.00 0.00 0.00 48 1018.8
20200711010957 82 134 0.0 0.0 0.00 0.00 0.00 44 1018.8
20200711010455 81 104 0.0 1.0 0.00 0.00 0.00 44 1018.8
20200711005953 81 122 1.0 1.0 0.00 0.00 0.00 43 1019.1
20200711005451 81 95 0.0 0.0 0.00 0.00 0.00 45 1019.1
20200711004945 82 224 5.0 6.0 0.00 0.00 0.00 42 1018.8
20200711004441 82 114 1.0 1.0 0.00 0.00 0.00 44 1019.1
20200711003936 81 120 0.0 0.0 0.00 0.00 0.00 48 1019.1
20200711003430 81 147 1.0 1.0 0.00 0.00 0.00 45 1019.1
20200711002928 82 86 0.0 0.0 0.00 0.00 0.00 44 1019.1
20200711002431 82 93 0.0 0.0 0.00 0.00 0.00 48 1019.1
20200711001923 82 81 1.0 1.0 0.00 0.00 0.00 44 1019.4
20200711001420 82 132 0.0 0.0 0.00 0.00 0.00 44 1019.4
20200711000919 81 140 1.0 2.0 0.00 0.00 0.00 47 1019.4
20200711000419 81 96 1.0 2.0 0.00 0.00 0.00 47 1019.4
20200710235916 82 125 1.0 1.0 0.00 0.00 0.00 48 1019.4
20200710235412 82 237 1.0 2.0 0.00 0.00 0.00 45 1019.4
20200710234912 81 103 0.0 1.0 0.00 0.00 0.00 50 1019.4
20200710234409 82 79 0.0 1.0 0.00 0.00 0.00 45 1019.8
20200710233905 82 100 0.0 1.0 0.00 0.00 0.00 45 1019.4
20200710233400 81 112 0.0 0.0 0.00 0.00 0.00 45 1019.8
20200710232859 81 77 0.0 1.0 0.00 0.00 0.00 48 1019.4